sensor_id;sensor_type;location;lat;lon;timestamp;P1;durP1;ratioP1;P2;durP2;ratioP2
9716;SDS011;4897;43.570;27.832;2024-02-04T00:02:17;29.05;;;26.45;;
9716;SDS011;4897;43.570;27.832;2024-02-04T00:04:47;29.00;;;26.08;;
9716;SDS011;4897;43.570;27.832;2024-02-04T00:07:14;21.77;;;19.05;;
9716;SDS011;4897;43.570;27.832;2024-02-04T00:09:41;21.13;;;19.00;;
9716;SDS011;4897;43.570;27.832;2024-02-04T00:12:09;38.58;;;35.08;;
9716;SDS011;4897;43.570;27.832;2024-02-04T00:14:36;26.30;;;23.70;;
9716;SDS011;4897;43.570;27.832;2024-02-04T00:17:03;32.20;;;29.20;;
9716;SDS011;4897;43.570;27.832;2024-02-04T00:19:30;32.25;;;29.35;;
9716;SDS011;4897;43.570;27.832;2024-02-04T00:22:02;28.77;;;26.17;;
9716;SDS011;4897;43.570;27.832;2024-02-04T00:24:29;28.67;;;26.05;;
9716;SDS011;4897;43.570;27.832;2024-02-04T00:26:57;30.27;;;27.77;;
9716;SDS011;4897;43.570;27.832;2024-02-04T00:29:24;31.55;;;28.60;;
9716;SDS011;4897;43.570;27.832;2024-02-04T00:31:51;22.88;;;20.58;;
9716;SDS011;4897;43.570;27.832;2024-02-04T00:34:21;24.10;;;21.48;;
9716;SDS011;4897;43.570;27.832;2024-02-04T00:36:48;37.17;;;33.97;;
9716;SDS011;4897;43.570;27.832;2024-02-04T00:39:16;33.95;;;30.75;;
9716;SDS011;4897;43.570;27.832;2024-02-04T00:41:43;36.03;;;32.83;;
9716;SDS011;4897;43.570;27.832;2024-02-04T00:44:11;35.05;;;31.95;;
9716;SDS011;4897;43.570;27.832;2024-02-04T00:46:38;36.72;;;33.50;;
9716;SDS011;4897;43.570;27.832;2024-02-04T00:49:05;33.05;;;30.05;;
9716;SDS011;4897;43.570;27.832;2024-02-04T00:51:32;31.13;;;28.50;;
9716;SDS011;4897;43.570;27.832;2024-02-04T00:53:59;29.52;;;26.92;;
9716;SDS011;4897;43.570;27.832;2024-02-04T00:56:28;29.52;;;26.83;;
9716;SDS011;4897;43.570;27.832;2024-02-04T00:58:55;32.40;;;29.60;;
9716;SDS011;4897;43.570;27.832;2024-02-04T01:01:22;30.38;;;27.52;;
9716;SDS011;4897;43.570;27.832;2024-02-04T01:03:49;35.47;;;32.13;;
9716;SDS011;4897;43.570;27.832;2024-02-04T01:06:16;35.33;;;32.05;;
9716;SDS011;4897;43.570;27.832;2024-02-04T01:08:44;36.55;;;33.35;;
9716;SDS011;4897;43.570;27.832;2024-02-04T01:11:11;33.35;;;30.50;;
9716;SDS011;4897;43.570;27.832;2024-02-04T01:13:41;34.85;;;31.95;;
9716;SDS011;4897;43.570;27.832;2024-02-04T01:16:09;35.80;;;32.60;;
9716;SDS011;4897;43.570;27.832;2024-02-04T01:18:36;28.58;;;25.75;;
9716;SDS011;4897;43.570;27.832;2024-02-04T01:21:03;28.20;;;25.80;;
9716;SDS011;4897;43.570;27.832;2024-02-04T01:23:33;36.13;;;33.13;;
9716;SDS011;4897;43.570;27.832;2024-02-04T01:26:06;35.53;;;32.35;;
9716;SDS011;4897;43.570;27.832;2024-02-04T01:28:33;35.20;;;32.30;;
9716;SDS011;4897;43.570;27.832;2024-02-04T01:31:02;36.10;;;32.85;;
9716;SDS011;4897;43.570;27.832;2024-02-04T01:33:29;23.67;;;21.58;;
9716;SDS011;4897;43.570;27.832;2024-02-04T01:35:56;24.48;;;22.33;;
9716;SDS011;4897;43.570;27.832;2024-02-04T01:38:23;28.55;;;26.05;;
9716;SDS011;4897;43.570;27.832;2024-02-04T01:40:50;31.65;;;28.95;;
9716;SDS011;4897;43.570;27.832;2024-02-04T01:43:19;34.33;;;31.35;;
9716;SDS011;4897;43.570;27.832;2024-02-04T01:45:48;33.15;;;30.30;;
9716;SDS011;4897;43.570;27.832;2024-02-04T01:48:18;34.88;;;31.60;;
9716;SDS011;4897;43.570;27.832;2024-02-04T01:50:46;39.50;;;35.97;;
9716;SDS011;4897;43.570;27.832;2024-02-04T01:53:15;39.15;;;35.95;;
9716;SDS011;4897;43.570;27.832;2024-02-04T01:55:43;37.72;;;34.67;;
9716;SDS011;4897;43.570;27.832;2024-02-04T01:58:11;33.72;;;30.75;;
9716;SDS011;4897;43.570;27.832;2024-02-04T02:00:38;30.35;;;27.65;;
9716;SDS011;4897;43.570;27.832;2024-02-04T02:03:05;27.90;;;25.60;;
9716;SDS011;4897;43.570;27.832;2024-02-04T02:05:34;25.75;;;23.50;;
9716;SDS011;4897;43.570;27.832;2024-02-04T02:08:02;30.90;;;28.10;;
9716;SDS011;4897;43.570;27.832;2024-02-04T02:10:31;29.02;;;26.42;;
9716;SDS011;4897;43.570;27.832;2024-02-04T02:12:59;33.58;;;30.55;;
9716;SDS011;4897;43.570;27.832;2024-02-04T02:15:32;28.40;;;25.90;;
9716;SDS011;4897;43.570;27.832;2024-02-04T02:18:06;27.60;;;25.08;;
9716;SDS011;4897;43.570;27.832;2024-02-04T02:20:41;26.75;;;24.42;;
9716;SDS011;4897;43.570;27.832;2024-02-04T02:23:22;27.85;;;25.25;;
9716;SDS011;4897;43.570;27.832;2024-02-04T02:25:56;30.48;;;27.98;;
9716;SDS011;4897;43.570;27.832;2024-02-04T02:28:26;31.45;;;28.75;;
9716;SDS011;4897;43.570;27.832;2024-02-04T02:30:53;34.03;;;31.23;;
9716;SDS011;4897;43.570;27.832;2024-02-04T02:33:20;36.88;;;33.65;;
9716;SDS011;4897;43.570;27.832;2024-02-04T02:35:49;38.95;;;35.40;;
9716;SDS011;4897;43.570;27.832;2024-02-04T02:38:21;38.10;;;34.70;;
9716;SDS011;4897;43.570;27.832;2024-02-04T02:40:54;35.67;;;32.42;;
9716;SDS011;4897;43.570;27.832;2024-02-04T02:43:26;35.05;;;31.95;;
9716;SDS011;4897;43.570;27.832;2024-02-04T02:45:56;33.40;;;30.10;;
9716;SDS011;4897;43.570;27.832;2024-02-04T02:48:23;28.67;;;26.08;;
9716;SDS011;4897;43.570;27.832;2024-02-04T02:50:51;29.88;;;26.95;;
9716;SDS011;4897;43.570;27.832;2024-02-04T02:53:20;32.80;;;29.70;;
9716;SDS011;4897;43.570;27.832;2024-02-04T02:55:47;34.30;;;31.20;;
9716;SDS011;4897;43.570;27.832;2024-02-04T02:58:14;31.67;;;28.92;;
9716;SDS011;4897;43.570;27.832;2024-02-04T03:00:43;35.60;;;32.30;;
9716;SDS011;4897;43.570;27.832;2024-02-04T03:03:10;28.95;;;26.20;;
9716;SDS011;4897;43.570;27.832;2024-02-04T03:05:37;28.88;;;26.27;;
9716;SDS011;4897;43.570;27.832;2024-02-04T03:08:05;31.20;;;28.50;;
9716;SDS011;4897;43.570;27.832;2024-02-04T03:10:32;30.13;;;27.35;;
9716;SDS011;4897;43.570;27.832;2024-02-04T03:12:59;34.15;;;30.77;;
9716;SDS011;4897;43.570;27.832;2024-02-04T03:15:27;31.17;;;28.35;;
9716;SDS011;4897;43.570;27.832;2024-02-04T03:17:56;33.30;;;30.38;;
9716;SDS011;4897;43.570;27.832;2024-02-04T03:20:23;34.70;;;31.70;;
9716;SDS011;4897;43.570;27.832;2024-02-04T03:22:50;37.95;;;34.85;;
9716;SDS011;4897;43.570;27.832;2024-02-04T03:25:24;37.17;;;34.13;;
9716;SDS011;4897;43.570;27.832;2024-02-04T03:27:56;35.80;;;32.65;;
9716;SDS011;4897;43.570;27.832;2024-02-04T03:30:26;32.78;;;29.83;;
9716;SDS011;4897;43.570;27.832;2024-02-04T03:32:53;30.85;;;28.15;;
9716;SDS011;4897;43.570;27.832;2024-02-04T03:35:22;31.60;;;28.70;;
9716;SDS011;4897;43.570;27.832;2024-02-04T03:37:49;31.55;;;28.65;;
9716;SDS011;4897;43.570;27.832;2024-02-04T03:40:16;37.13;;;33.80;;
9716;SDS011;4897;43.570;27.832;2024-02-04T03:42:44;35.90;;;32.70;;
9716;SDS011;4897;43.570;27.832;2024-02-04T03:45:12;31.58;;;28.73;;
9716;SDS011;4897;43.570;27.832;2024-02-04T03:47:39;29.15;;;26.55;;
9716;SDS011;4897;43.570;27.832;2024-02-04T03:50:11;25.05;;;22.83;;
9716;SDS011;4897;43.570;27.832;2024-02-04T03:52:43;35.15;;;32.13;;
9716;SDS011;4897;43.570;27.832;2024-02-04T03:55:10;26.95;;;24.50;;
9716;SDS011;4897;43.570;27.832;2024-02-04T03:57:37;29.80;;;27.10;;
9716;SDS011;4897;43.570;27.832;2024-02-04T04:00:04;41.10;;;37.75;;
9716;SDS011;4897;43.570;27.832;2024-02-04T04:02:34;44.05;;;40.25;;
9716;SDS011;4897;43.570;27.832;2024-02-04T04:05:01;39.20;;;35.65;;
9716;SDS011;4897;43.570;27.832;2024-02-04T04:07:28;39.78;;;36.47;;
9716;SDS011;4897;43.570;27.832;2024-02-04T04:09:56;35.63;;;32.50;;
9716;SDS011;4897;43.570;27.832;2024-02-04T04:12:24;35.25;;;32.33;;
9716;SDS011;4897;43.570;27.832;2024-02-04T04:14:51;31.17;;;28.48;;
9716;SDS011;4897;43.570;27.832;2024-02-04T04:17:18;30.73;;;28.00;;
9716;SDS011;4897;43.570;27.832;2024-02-04T04:19:45;43.72;;;39.97;;
9716;SDS011;4897;43.570;27.832;2024-02-04T04:22:12;34.60;;;31.63;;
9716;SDS011;4897;43.570;27.832;2024-02-04T04:24:39;37.70;;;34.47;;
9716;SDS011;4897;43.570;27.832;2024-02-04T04:27:08;33.50;;;30.60;;
9716;SDS011;4897;43.570;27.832;2024-02-04T04:29:35;29.50;;;26.80;;
9716;SDS011;4897;43.570;27.832;2024-02-04T04:32:03;28.48;;;25.98;;
9716;SDS011;4897;43.570;27.832;2024-02-04T04:34:31;21.38;;;19.35;;
9716;SDS011;4897;43.570;27.832;2024-02-04T04:36:58;25.25;;;22.92;;
9716;SDS011;4897;43.570;27.832;2024-02-04T04:39:25;22.13;;;20.00;;
9716;SDS011;4897;43.570;27.832;2024-02-04T04:41:52;39.97;;;36.63;;
9716;SDS011;4897;43.570;27.832;2024-02-04T04:44:20;23.63;;;21.38;;
9716;SDS011;4897;43.570;27.832;2024-02-04T04:46:48;21.88;;;19.95;;
9716;SDS011;4897;43.570;27.832;2024-02-04T04:49:15;26.17;;;23.98;;
9716;SDS011;4897;43.570;27.832;2024-02-04T04:51:44;29.50;;;27.00;;
9716;SDS011;4897;43.570;27.832;2024-02-04T04:54:12;28.80;;;26.20;;
9716;SDS011;4897;43.570;27.832;2024-02-04T04:56:39;31.13;;;28.52;;
9716;SDS011;4897;43.570;27.832;2024-02-04T04:59:08;26.35;;;23.95;;
9716;SDS011;4897;43.570;27.832;2024-02-04T05:01:36;27.00;;;24.38;;
9716;SDS011;4897;43.570;27.832;2024-02-04T05:04:03;26.20;;;23.80;;
9716;SDS011;4897;43.570;27.832;2024-02-04T05:06:30;27.33;;;24.88;;
9716;SDS011;4897;43.570;27.832;2024-02-04T05:08:58;26.45;;;24.05;;
9716;SDS011;4897;43.570;27.832;2024-02-04T05:11:25;26.23;;;23.83;;
9716;SDS011;4897;43.570;27.832;2024-02-04T05:13:52;26.58;;;24.25;;
9716;SDS011;4897;43.570;27.832;2024-02-04T05:16:19;25.13;;;22.58;;
9716;SDS011;4897;43.570;27.832;2024-02-04T05:18:48;23.45;;;21.35;;
9716;SDS011;4897;43.570;27.832;2024-02-04T05:21:15;23.85;;;21.48;;
9716;SDS011;4897;43.570;27.832;2024-02-04T05:23:42;26.77;;;24.42;;
9716;SDS011;4897;43.570;27.832;2024-02-04T05:26:10;24.40;;;22.02;;
9716;SDS011;4897;43.570;27.832;2024-02-04T05:28:38;23.13;;;21.13;;
9716;SDS011;4897;43.570;27.832;2024-02-04T05:31:04;20.85;;;18.92;;
9716;SDS011;4897;43.570;27.832;2024-02-04T05:33:31;19.65;;;17.80;;
9716;SDS011;4897;43.570;27.832;2024-02-04T05:35:59;20.83;;;18.90;;
9716;SDS011;4897;43.570;27.832;2024-02-04T05:38:26;21.50;;;19.70;;
9716;SDS011;4897;43.570;27.832;2024-02-04T05:40:56;24.25;;;22.20;;
9716;SDS011;4897;43.570;27.832;2024-02-04T05:43:23;26.08;;;23.77;;
9716;SDS011;4897;43.570;27.832;2024-02-04T05:45:50;23.70;;;21.60;;
9716;SDS011;4897;43.570;27.832;2024-02-04T05:48:17;20.92;;;19.02;;
9716;SDS011;4897;43.570;27.832;2024-02-04T05:50:44;24.35;;;22.05;;
9716;SDS011;4897;43.570;27.832;2024-02-04T05:53:13;21.63;;;19.60;;
9716;SDS011;4897;43.570;27.832;2024-02-04T05:55:40;24.60;;;22.20;;
9716;SDS011;4897;43.570;27.832;2024-02-04T05:58:07;26.00;;;23.58;;
9716;SDS011;4897;43.570;27.832;2024-02-04T06:00:35;27.60;;;25.08;;
9716;SDS011;4897;43.570;27.832;2024-02-04T06:03:03;27.55;;;24.92;;
9716;SDS011;4897;43.570;27.832;2024-02-04T06:05:33;28.50;;;25.92;;
9716;SDS011;4897;43.570;27.832;2024-02-04T06:08:00;30.27;;;27.40;;
9716;SDS011;4897;43.570;27.832;2024-02-04T06:10:29;27.75;;;24.92;;
9716;SDS011;4897;43.570;27.832;2024-02-04T06:12:56;25.33;;;22.92;;
9716;SDS011;4897;43.570;27.832;2024-02-04T06:15:23;26.75;;;24.33;;
9716;SDS011;4897;43.570;27.832;2024-02-04T06:17:50;27.38;;;23.33;;
9716;SDS011;4897;43.570;27.832;2024-02-04T06:20:17;32.63;;;29.73;;
9716;SDS011;4897;43.570;27.832;2024-02-04T06:22:44;28.75;;;26.25;;
9716;SDS011;4897;43.570;27.832;2024-02-04T06:25:11;27.33;;;24.42;;
9716;SDS011;4897;43.570;27.832;2024-02-04T06:27:41;27.45;;;24.88;;
9716;SDS011;4897;43.570;27.832;2024-02-04T06:30:08;25.58;;;23.38;;
9716;SDS011;4897;43.570;27.832;2024-02-04T06:32:36;22.10;;;20.20;;
9716;SDS011;4897;43.570;27.832;2024-02-04T06:35:03;26.35;;;24.00;;
9716;SDS011;4897;43.570;27.832;2024-02-04T06:37:31;28.02;;;25.20;;
9716;SDS011;4897;43.570;27.832;2024-02-04T06:39:58;27.02;;;24.42;;
9716;SDS011;4897;43.570;27.832;2024-02-04T06:42:25;36.17;;;32.92;;
9716;SDS011;4897;43.570;27.832;2024-02-04T06:44:53;29.88;;;27.17;;
9716;SDS011;4897;43.570;27.832;2024-02-04T06:47:20;29.75;;;27.08;;
9716;SDS011;4897;43.570;27.832;2024-02-04T06:49:46;28.58;;;25.65;;
9716;SDS011;4897;43.570;27.832;2024-02-04T06:52:13;27.00;;;24.52;;
9716;SDS011;4897;43.570;27.832;2024-02-04T06:54:40;27.38;;;24.88;;
9716;SDS011;4897;43.570;27.832;2024-02-04T06:57:07;31.42;;;28.40;;
9716;SDS011;4897;43.570;27.832;2024-02-04T06:59:34;29.75;;;26.92;;
9716;SDS011;4897;43.570;27.832;2024-02-04T07:02:02;34.05;;;30.83;;
9716;SDS011;4897;43.570;27.832;2024-02-04T07:04:29;36.95;;;33.45;;
9716;SDS011;4897;43.570;27.832;2024-02-04T07:06:56;30.88;;;27.80;;
9716;SDS011;4897;43.570;27.832;2024-02-04T07:09:23;33.05;;;30.15;;
9716;SDS011;4897;43.570;27.832;2024-02-04T07:11:50;28.52;;;26.00;;
9716;SDS011;4897;43.570;27.832;2024-02-04T07:14:17;28.65;;;26.05;;
9716;SDS011;4897;43.570;27.832;2024-02-04T07:16:44;28.35;;;25.58;;
9716;SDS011;4897;43.570;27.832;2024-02-04T07:19:12;30.17;;;27.45;;
9716;SDS011;4897;43.570;27.832;2024-02-04T07:21:39;26.35;;;23.75;;
9716;SDS011;4897;43.570;27.832;2024-02-04T07:24:06;27.13;;;24.73;;
9716;SDS011;4897;43.570;27.832;2024-02-04T07:26:33;27.30;;;24.88;;
9716;SDS011;4897;43.570;27.832;2024-02-04T07:29:00;34.40;;;31.40;;
9716;SDS011;4897;43.570;27.832;2024-02-04T07:31:27;25.88;;;23.15;;
9716;SDS011;4897;43.570;27.832;2024-02-04T07:33:54;26.70;;;24.30;;
9716;SDS011;4897;43.570;27.832;2024-02-04T07:36:22;24.45;;;22.25;;
9716;SDS011;4897;43.570;27.832;2024-02-04T07:38:49;25.75;;;23.30;;
9716;SDS011;4897;43.570;27.832;2024-02-04T07:41:18;24.15;;;21.95;;
9716;SDS011;4897;43.570;27.832;2024-02-04T07:43:45;30.33;;;27.63;;
9716;SDS011;4897;43.570;27.832;2024-02-04T07:46:13;28.15;;;25.63;;
9716;SDS011;4897;43.570;27.832;2024-02-04T07:48:40;27.85;;;25.33;;
9716;SDS011;4897;43.570;27.832;2024-02-04T07:51:07;29.13;;;26.40;;
9716;SDS011;4897;43.570;27.832;2024-02-04T07:53:35;29.08;;;24.48;;
9716;SDS011;4897;43.570;27.832;2024-02-04T07:56:02;27.15;;;24.55;;
9716;SDS011;4897;43.570;27.832;2024-02-04T07:58:31;34.53;;;31.25;;
9716;SDS011;4897;43.570;27.832;2024-02-04T08:00:58;31.20;;;28.15;;
9716;SDS011;4897;43.570;27.832;2024-02-04T08:03:25;28.35;;;25.67;;
9716;SDS011;4897;43.570;27.832;2024-02-04T08:05:54;32.22;;;29.33;;
9716;SDS011;4897;43.570;27.832;2024-02-04T08:08:20;29.13;;;26.73;;
9716;SDS011;4897;43.570;27.832;2024-02-04T08:10:49;33.72;;;30.85;;
9716;SDS011;4897;43.570;27.832;2024-02-04T08:13:16;27.73;;;25.38;;
9716;SDS011;4897;43.570;27.832;2024-02-04T08:15:43;26.08;;;23.70;;
9716;SDS011;4897;43.570;27.832;2024-02-04T08:18:10;27.08;;;24.48;;
9716;SDS011;4897;43.570;27.832;2024-02-04T08:20:37;25.05;;;22.85;;
9716;SDS011;4897;43.570;27.832;2024-02-04T08:23:03;25.50;;;23.02;;
9716;SDS011;4897;43.570;27.832;2024-02-04T08:25:30;26.63;;;24.17;;
9716;SDS011;4897;43.570;27.832;2024-02-04T08:27:59;25.20;;;23.00;;
9716;SDS011;4897;43.570;27.832;2024-02-04T08:30:26;25.17;;;22.98;;
9716;SDS011;4897;43.570;27.832;2024-02-04T08:32:53;24.77;;;22.83;;
9716;SDS011;4897;43.570;27.832;2024-02-04T08:35:20;27.70;;;25.50;;
9716;SDS011;4897;43.570;27.832;2024-02-04T08:37:46;31.67;;;28.98;;
9716;SDS011;4897;43.570;27.832;2024-02-04T08:40:13;30.92;;;28.23;;
9716;SDS011;4897;43.570;27.832;2024-02-04T08:42:43;24.15;;;22.20;;
9716;SDS011;4897;43.570;27.832;2024-02-04T08:45:12;24.15;;;21.95;;
9716;SDS011;4897;43.570;27.832;2024-02-04T08:47:38;22.85;;;20.77;;
9716;SDS011;4897;43.570;27.832;2024-02-04T08:50:06;22.70;;;20.48;;
9716;SDS011;4897;43.570;27.832;2024-02-04T08:52:34;27.30;;;24.88;;
9716;SDS011;4897;43.570;27.832;2024-02-04T08:55:01;45.08;;;41.17;;
9716;SDS011;4897;43.570;27.832;2024-02-04T08:57:29;24.95;;;22.83;;
9716;SDS011;4897;43.570;27.832;2024-02-04T08:59:56;27.75;;;25.30;;
9716;SDS011;4897;43.570;27.832;2024-02-04T09:02:24;29.67;;;27.15;;
9716;SDS011;4897;43.570;27.832;2024-02-04T09:04:51;27.38;;;25.17;;
9716;SDS011;4897;43.570;27.832;2024-02-04T09:07:18;28.00;;;25.60;;
9716;SDS011;4897;43.570;27.832;2024-02-04T09:09:46;27.42;;;25.20;;
9716;SDS011;4897;43.570;27.832;2024-02-04T09:12:12;28.17;;;25.48;;
9716;SDS011;4897;43.570;27.832;2024-02-04T09:14:39;24.63;;;22.73;;
9716;SDS011;4897;43.570;27.832;2024-02-04T09:17:06;24.42;;;22.27;;
9716;SDS011;4897;43.570;27.832;2024-02-04T09:19:36;26.65;;;24.10;;
9716;SDS011;4897;43.570;27.832;2024-02-04T09:22:03;26.52;;;23.98;;
9716;SDS011;4897;43.570;27.832;2024-02-04T09:24:30;30.95;;;28.40;;
9716;SDS011;4897;43.570;27.832;2024-02-04T09:26:56;29.35;;;26.65;;
9716;SDS011;4897;43.570;27.832;2024-02-04T09:29:23;27.52;;;25.25;;
9716;SDS011;4897;43.570;27.832;2024-02-04T09:31:55;24.15;;;22.05;;
9716;SDS011;4897;43.570;27.832;2024-02-04T09:34:22;23.95;;;22.08;;
9716;SDS011;4897;43.570;27.832;2024-02-04T09:36:51;22.80;;;20.90;;
9716;SDS011;4897;43.570;27.832;2024-02-04T09:39:18;24.02;;;21.92;;
9716;SDS011;4897;43.570;27.832;2024-02-04T09:41:51;23.48;;;21.50;;
9716;SDS011;4897;43.570;27.832;2024-02-04T09:44:20;24.13;;;22.02;;
9716;SDS011;4897;43.570;27.832;2024-02-04T09:46:49;30.05;;;27.55;;
9716;SDS011;4897;43.570;27.832;2024-02-04T09:49:19;25.67;;;23.40;;
9716;SDS011;4897;43.570;27.832;2024-02-04T09:51:52;23.05;;;21.15;;
9716;SDS011;4897;43.570;27.832;2024-02-04T09:54:21;25.23;;;23.17;;
9716;SDS011;4897;43.570;27.832;2024-02-04T09:56:48;24.77;;;22.52;;
9716;SDS011;4897;43.570;27.832;2024-02-04T09:59:16;25.27;;;23.17;;
9716;SDS011;4897;43.570;27.832;2024-02-04T10:01:43;26.50;;;24.17;;
9716;SDS011;4897;43.570;27.832;2024-02-04T10:04:11;26.85;;;24.33;;
9716;SDS011;4897;43.570;27.832;2024-02-04T10:06:38;22.60;;;20.70;;
9716;SDS011;4897;43.570;27.832;2024-02-04T10:09:06;26.70;;;24.38;;
9716;SDS011;4897;43.570;27.832;2024-02-04T10:11:34;25.23;;;23.15;;
9716;SDS011;4897;43.570;27.832;2024-02-04T10:14:00;26.13;;;23.98;;
9716;SDS011;4897;43.570;27.832;2024-02-04T10:16:27;27.35;;;23.95;;
9716;SDS011;4897;43.570;27.832;2024-02-04T10:18:56;25.52;;;23.27;;
9716;SDS011;4897;43.570;27.832;2024-02-04T10:21:23;24.90;;;22.90;;
9716;SDS011;4897;43.570;27.832;2024-02-04T10:23:50;24.63;;;22.52;;
9716;SDS011;4897;43.570;27.832;2024-02-04T10:26:18;24.63;;;22.60;;
9716;SDS011;4897;43.570;27.832;2024-02-04T10:28:46;25.67;;;23.60;;
9716;SDS011;4897;43.570;27.832;2024-02-04T10:31:13;24.70;;;22.35;;
9716;SDS011;4897;43.570;27.832;2024-02-04T10:33:40;23.27;;;21.25;;
9716;SDS011;4897;43.570;27.832;2024-02-04T10:36:07;24.17;;;22.20;;
9716;SDS011;4897;43.570;27.832;2024-02-04T10:38:35;25.13;;;22.70;;
9716;SDS011;4897;43.570;27.832;2024-02-04T10:41:03;29.48;;;24.05;;
9716;SDS011;4897;43.570;27.832;2024-02-04T10:43:32;24.88;;;22.65;;
9716;SDS011;4897;43.570;27.832;2024-02-04T10:46:01;25.50;;;23.17;;
9716;SDS011;4897;43.570;27.832;2024-02-04T10:48:36;35.10;;;31.63;;
9716;SDS011;4897;43.570;27.832;2024-02-04T10:51:09;26.23;;;23.38;;
9716;SDS011;4897;43.570;27.832;2024-02-04T10:53:39;26.88;;;24.33;;
9716;SDS011;4897;43.570;27.832;2024-02-04T10:56:08;26.67;;;24.15;;
9716;SDS011;4897;43.570;27.832;2024-02-04T10:58:41;23.77;;;21.88;;
9716;SDS011;4897;43.570;27.832;2024-02-04T11:01:11;24.38;;;22.17;;
9716;SDS011;4897;43.570;27.832;2024-02-04T11:03:41;22.98;;;21.17;;
9716;SDS011;4897;43.570;27.832;2024-02-04T11:06:09;24.00;;;22.00;;
9716;SDS011;4897;43.570;27.832;2024-02-04T11:08:37;23.45;;;21.27;;
9716;SDS011;4897;43.570;27.832;2024-02-04T11:11:05;25.13;;;23.13;;
9716;SDS011;4897;43.570;27.832;2024-02-04T11:13:32;25.00;;;22.77;;
9716;SDS011;4897;43.570;27.832;2024-02-04T11:16:02;22.80;;;20.92;;
9716;SDS011;4897;43.570;27.832;2024-02-04T11:18:44;23.65;;;21.55;;
9716;SDS011;4897;43.570;27.832;2024-02-04T11:21:38;23.15;;;21.15;;
9716;SDS011;4897;43.570;27.832;2024-02-04T11:24:31;23.20;;;21.20;;
9716;SDS011;4897;43.570;27.832;2024-02-04T11:27:11;23.65;;;21.55;;
9716;SDS011;4897;43.570;27.832;2024-02-04T11:29:39;24.48;;;22.42;;
9716;SDS011;4897;43.570;27.832;2024-02-04T11:32:07;23.65;;;21.65;;
9716;SDS011;4897;43.570;27.832;2024-02-04T11:34:36;22.63;;;20.77;;
9716;SDS011;4897;43.570;27.832;2024-02-04T11:37:14;25.08;;;22.83;;
9716;SDS011;4897;43.570;27.832;2024-02-04T11:39:47;23.63;;;21.73;;
9716;SDS011;4897;43.570;27.832;2024-02-04T11:42:15;23.95;;;21.85;;
9716;SDS011;4897;43.570;27.832;2024-02-04T11:44:43;23.67;;;21.38;;
9716;SDS011;4897;43.570;27.832;2024-02-04T11:47:11;23.95;;;21.85;;
9716;SDS011;4897;43.570;27.832;2024-02-04T11:49:53;22.17;;;20.08;;
9716;SDS011;4897;43.570;27.832;2024-02-04T11:52:20;21.67;;;19.88;;
9716;SDS011;4897;43.570;27.832;2024-02-04T11:54:48;22.48;;;20.45;;
9716;SDS011;4897;43.570;27.832;2024-02-04T11:57:15;20.75;;;19.05;;
9716;SDS011;4897;43.570;27.832;2024-02-04T11:59:42;21.33;;;19.63;;
9716;SDS011;4897;43.570;27.832;2024-02-04T12:02:10;21.40;;;19.40;;
9716;SDS011;4897;43.570;27.832;2024-02-04T12:04:39;22.00;;;20.20;;
9716;SDS011;4897;43.570;27.832;2024-02-04T12:07:09;21.33;;;19.63;;
9716;SDS011;4897;43.570;27.832;2024-02-04T12:09:37;22.73;;;20.30;;
9716;SDS011;4897;43.570;27.832;2024-02-04T12:12:07;21.33;;;19.50;;
9716;SDS011;4897;43.570;27.832;2024-02-04T12:14:34;21.55;;;19.63;;
9716;SDS011;4897;43.570;27.832;2024-02-04T12:17:06;21.80;;;20.00;;
9716;SDS011;4897;43.570;27.832;2024-02-04T12:19:36;20.95;;;19.25;;
9716;SDS011;4897;43.570;27.832;2024-02-04T12:22:03;19.17;;;17.67;;
9716;SDS011;4897;43.570;27.832;2024-02-04T12:24:34;24.50;;;20.70;;
9716;SDS011;4897;43.570;27.832;2024-02-04T12:27:02;22.13;;;19.95;;
9716;SDS011;4897;43.570;27.832;2024-02-04T12:29:30;21.85;;;20.15;;
9716;SDS011;4897;43.570;27.832;2024-02-04T12:31:58;21.02;;;19.38;;
9716;SDS011;4897;43.570;27.832;2024-02-04T12:34:25;24.00;;;22.00;;
9716;SDS011;4897;43.570;27.832;2024-02-04T12:36:58;22.90;;;21.00;;
9716;SDS011;4897;43.570;27.832;2024-02-04T12:39:25;22.95;;;20.83;;
9716;SDS011;4897;43.570;27.832;2024-02-04T12:41:52;23.00;;;21.02;;
9716;SDS011;4897;43.570;27.832;2024-02-04T12:44:19;22.13;;;19.92;;
9716;SDS011;4897;43.570;27.832;2024-02-04T12:46:49;21.75;;;20.05;;
9716;SDS011;4897;43.570;27.832;2024-02-04T12:49:18;19.35;;;17.85;;
9716;SDS011;4897;43.570;27.832;2024-02-04T12:51:49;19.38;;;17.77;;
9716;SDS011;4897;43.570;27.832;2024-02-04T12:54:18;18.45;;;16.85;;
9716;SDS011;4897;43.570;27.832;2024-02-04T12:56:45;17.55;;;15.80;;
9716;SDS011;4897;43.570;27.832;2024-02-04T12:59:23;18.08;;;16.38;;
9716;SDS011;4897;43.570;27.832;2024-02-04T13:01:53;17.55;;;15.95;;
9716;SDS011;4897;43.570;27.832;2024-02-04T13:04:21;17.00;;;15.63;;
9716;SDS011;4897;43.570;27.832;2024-02-04T13:06:49;27.55;;;25.42;;
9716;SDS011;4897;43.570;27.832;2024-02-04T13:09:18;22.15;;;20.25;;
9716;SDS011;4897;43.570;27.832;2024-02-04T13:11:48;23.20;;;21.30;;
9716;SDS011;4897;43.570;27.832;2024-02-04T13:14:15;23.33;;;21.02;;
9716;SDS011;4897;43.570;27.832;2024-02-04T13:16:42;23.55;;;21.65;;
9716;SDS011;4897;43.570;27.832;2024-02-04T13:19:14;23.70;;;21.80;;
9716;SDS011;4897;43.570;27.832;2024-02-04T13:21:41;23.83;;;21.92;;
9716;SDS011;4897;43.570;27.832;2024-02-04T13:24:08;22.45;;;20.65;;
9716;SDS011;4897;43.570;27.832;2024-02-04T13:26:37;22.67;;;20.77;;
9716;SDS011;4897;43.570;27.832;2024-02-04T13:29:04;22.65;;;20.73;;
9716;SDS011;4897;43.570;27.832;2024-02-04T13:31:31;21.67;;;19.88;;
9716;SDS011;4897;43.570;27.832;2024-02-04T13:33:58;22.17;;;20.40;;
9716;SDS011;4897;43.570;27.832;2024-02-04T13:36:29;20.00;;;18.50;;
9716;SDS011;4897;43.570;27.832;2024-02-04T13:38:56;21.55;;;19.75;;
9716;SDS011;4897;43.570;27.832;2024-02-04T13:41:26;23.13;;;21.02;;
9716;SDS011;4897;43.570;27.832;2024-02-04T13:43:57;21.65;;;19.73;;
9716;SDS011;4897;43.570;27.832;2024-02-04T13:46:26;22.52;;;20.50;;
9716;SDS011;4897;43.570;27.832;2024-02-04T13:48:53;23.92;;;22.00;;
9716;SDS011;4897;43.570;27.832;2024-02-04T13:51:20;22.23;;;20.42;;
9716;SDS011;4897;43.570;27.832;2024-02-04T13:53:47;22.75;;;20.95;;
9716;SDS011;4897;43.570;27.832;2024-02-04T13:56:17;20.55;;;18.98;;
9716;SDS011;4897;43.570;27.832;2024-02-04T13:58:44;22.25;;;20.42;;
9716;SDS011;4897;43.570;27.832;2024-02-04T14:01:15;21.58;;;19.35;;
9716;SDS011;4897;43.570;27.832;2024-02-04T14:03:43;22.13;;;20.13;;
9716;SDS011;4897;43.570;27.832;2024-02-04T14:06:10;22.10;;;20.20;;
9716;SDS011;4897;43.570;27.832;2024-02-04T14:08:38;21.23;;;19.25;;
9716;SDS011;4897;43.570;27.832;2024-02-04T14:11:04;23.50;;;19.85;;
9716;SDS011;4897;43.570;27.832;2024-02-04T14:13:31;21.55;;;19.80;;
9716;SDS011;4897;43.570;27.832;2024-02-04T14:15:59;22.45;;;20.45;;
9716;SDS011;4897;43.570;27.832;2024-02-04T14:18:31;20.92;;;19.27;;
9716;SDS011;4897;43.570;27.832;2024-02-04T14:21:01;21.08;;;19.38;;
9716;SDS011;4897;43.570;27.832;2024-02-04T14:23:27;22.15;;;20.05;;
9716;SDS011;4897;43.570;27.832;2024-02-04T14:25:54;21.63;;;19.65;;
9716;SDS011;4897;43.570;27.832;2024-02-04T14:28:24;23.88;;;21.65;;
9716;SDS011;4897;43.570;27.832;2024-02-04T14:30:51;23.30;;;21.20;;
9716;SDS011;4897;43.570;27.832;2024-02-04T14:33:18;25.25;;;23.05;;
9716;SDS011;4897;43.570;27.832;2024-02-04T14:35:46;22.52;;;20.27;;
9716;SDS011;4897;43.570;27.832;2024-02-04T14:38:13;22.83;;;20.83;;
9716;SDS011;4897;43.570;27.832;2024-02-04T14:40:40;21.77;;;19.77;;